Time,TemperatureF,DewpointF,PressureIn,WindDirection,WindDirectionDegrees,WindSpeedMPH,WindSpeedGustMPH,Humidity,HourlyPrecipIn,Conditions,Clouds,dailyrainin,SoftwareType,DateUTC
2013-04-13 00:01:00,54.5,40.9,29.93,SSE,158,0.0,0.0,60,0.00,,SKC,0.00,VWS V14.00,2013-04-13 04:01:00,
2013-04-13 00:20:00,54.0,40.4,29.93,SSE,158,0.0,0.0,60,0.00,,SKC,0.00,VWS V14.00,2013-04-13 04:20:00,
2013-04-13 00:40:00,53.6,40.1,29.93,SSE,158,0.0,0.0,60,0.00,,SKC,0.00,VWS V14.00,2013-04-13 04:40:00,
2013-04-13 01:00:00,53.1,40.0,29.94,SSE,158,0.0,0.0,61,0.00,,SKC,0.00,VWS V14.00,2013-04-13 05:00:00,
2013-04-13 01:20:00,52.7,39.6,29.94,SSE,158,0.0,0.0,61,0.00,,SKC,0.00,VWS V14.00,2013-04-13 05:20:00,
2013-04-13 01:40:00,52.2,40.4,29.94,SE,135,0.0,0.0,64,0.00,,SKC,0.00,VWS V14.00,2013-04-13 05:40:00,
2013-04-13 02:00:00,52.0,41.4,29.93,SE,135,0.0,0.0,67,0.00,,SKC,0.00,VWS V14.00,2013-04-13 06:00:00,
2013-04-13 02:20:00,51.6,41.8,29.93,ESE,112,0.0,0.0,69,0.00,,SKC,0.00,VWS V14.00,2013-04-13 06:20:00,
2013-04-13 03:20:00,51.4,40.1,29.94,ENE,68,0.0,0.0,65,0.00,,SKC,0.00,VWS V14.00,2013-04-13 07:20:00,
2013-04-13 04:40:00,50.2,39.7,29.95,ENE,68,0.0,0.0,67,0.00,,SKC,0.00,VWS V14.00,2013-04-13 08:40:00,
2013-04-13 05:00:00,49.6,39.5,29.96,ENE,68,0.0,0.0,68,0.00,,SKC,0.00,VWS V14.00,2013-04-13 09:00:00,
2013-04-13 05:20:00,49.5,40.1,29.96,ENE,68,0.0,0.0,70,0.00,,SKC,0.00,VWS V14.00,2013-04-13 09:20:00,
2013-04-13 05:40:00,49.1,40.1,29.96,ENE,68,0.0,0.0,71,0.00,,SKC,0.00,VWS V14.00,2013-04-13 09:40:00,
2013-04-13 06:00:00,48.7,40.1,29.96,ENE,68,0.0,0.0,72,0.00,,SKC,0.00,VWS V14.00,2013-04-13 10:00:00,
2013-04-13 06:20:00,48.4,40.1,29.97,ENE,68,0.0,0.0,73,0.00,,SKC,0.00,VWS V14.00,2013-04-13 10:20:00,
2013-04-13 07:00:00,47.7,40.1,29.98,ENE,68,0.0,0.0,75,0.00,,SKC,0.00,VWS V14.00,2013-04-13 11:00:00,
2013-04-13 07:20:00,47.3,40.1,29.99,ENE,68,0.0,0.0,76,0.00,,SKC,0.00,VWS V14.00,2013-04-13 11:20:00,
2013-04-13 08:20:00,47.8,42.0,30.02,ENE,68,0.0,0.0,80,0.00,,SKC,0.00,VWS V14.00,2013-04-13 12:20:00,
2013-04-13 08:40:00,48.4,42.8,30.02,ENE,68,0.0,0.0,81,0.00,,SKC,0.00,VWS V14.00,2013-04-13 12:40:00,
2013-04-13 09:40:00,51.6,43.3,30.03,NNW,338,0.0,0.0,73,0.00,,SKC,0.00,VWS V14.00,2013-04-13 13:40:00,
2013-04-13 10:01:00,52.7,41.3,30.04,ENE,68,0.0,0.0,65,0.00,,SKC,0.00,VWS V14.00,2013-04-13 14:01:00,
2013-04-13 10:20:00,53.6,40.5,30.03,NE,45,0.0,1.6,61,0.00,,SKC,0.00,VWS V14.00,2013-04-13 14:20:00,
2013-04-13 10:40:00,54.5,40.5,30.03,NNE,22,0.0,0.0,59,0.00,,SKC,0.00,VWS V14.00,2013-04-13 14:40:00,
2013-04-13 11:00:00,55.8,41.2,30.04,ENE,68,0.0,0.0,58,0.00,,SKC,0.00,VWS V14.00,2013-04-13 15:00:00,
2013-04-13 11:40:00,58.6,41.6,30.04,SE,135,0.0,1.1,53,0.00,,SKC,0.00,VWS V14.00,2013-04-13 15:40:00,
2013-04-13 12:00:00,60.3,41.6,30.04,NE,45,0.0,0.0,50,0.00,,SKC,0.00,VWS V14.00,2013-04-13 16:00:00,
2013-04-13 12:21:00,62.2,41.8,30.03,SE,135,0.0,4.5,47,0.00,,SKC,0.00,VWS V14.00,2013-04-13 16:21:00,
2013-04-13 12:40:00,63.9,41.0,30.03,East,90,0.0,0.0,43,0.00,,SKC,0.00,VWS V14.00,2013-04-13 16:40:00,
2013-04-13 13:00:00,66.4,43.2,30.02,NW,315,0.0,0.0,43,0.00,,SKC,0.00,VWS V14.00,2013-04-13 17:00:00,
2013-04-13 13:20:00,68.4,41.1,30.00,NNW,338,1.3,4.5,37,0.00,,SKC,0.00,VWS V14.00,2013-04-13 17:20:00,
2013-04-13 14:20:00,70.7,36.0,29.99,ENE,68,0.0,5.8,28,0.00,,SKC,0.00,VWS V14.00,2013-04-13 18:20:00,
2013-04-13 14:40:00,72.0,34.2,29.99,ESE,112,0.0,3.6,25,0.00,,SKC,0.00,VWS V14.00,2013-04-13 18:40:00,
2013-04-13 15:20:00,74.7,32.2,29.97,West,270,0.0,0.0,21,0.00,,SKC,0.00,VWS V14.00,2013-04-13 19:20:00,
2013-04-13 15:40:00,74.8,29.9,29.97,SSE,158,0.0,0.0,19,0.00,,SKC,0.00,VWS V14.00,2013-04-13 19:40:00,
2013-04-13 16:01:00,75.6,30.4,29.96,NNW,338,0.0,0.0,19,0.00,,SKC,0.00,VWS V14.00,2013-04-13 20:01:00,
2013-04-13 16:20:00,75.7,30.6,29.96,ENE,68,0.0,0.0,19,0.00,,SKC,0.00,VWS V14.00,2013-04-13 20:20:00,
2013-04-13 16:40:00,75.0,30.0,29.95,NNW,338,0.0,0.0,19,0.00,,SKC,0.00,VWS V14.00,2013-04-13 20:40:00,
2013-04-13 17:00:00,74.8,29.9,29.94,SE,135,0.0,0.0,19,0.00,,SKC,0.00,VWS V14.00,2013-04-13 21:00:00,
2013-04-13 17:20:00,74.7,29.7,29.94,NNW,338,0.0,2.5,19,0.00,,SKC,0.00,VWS V14.00,2013-04-13 21:20:00,
2013-04-13 17:40:00,73.9,29.1,29.94,East,90,0.0,5.1,19,0.00,,SKC,0.00,VWS V14.00,2013-04-13 21:40:00,
2013-04-13 18:20:00,73.0,28.4,29.94,North,0,0.0,2.7,19,0.00,,SKC,0.00,VWS V14.00,2013-04-13 22:20:00,
2013-04-13 18:40:00,72.7,28.1,29.94,NNW,338,2.9,4.5,19,0.00,,SKC,0.00,VWS V14.00,2013-04-13 22:40:00,
2013-04-13 19:01:00,72.0,27.5,29.94,NE,45,0.0,4.9,19,0.00,,SKC,0.00,VWS V14.00,2013-04-13 23:01:00,
2013-04-13 19:20:00,71.2,26.9,29.95,NNE,22,0.0,0.0,19,0.00,,SKC,0.00,VWS V14.00,2013-04-13 23:20:00,
2013-04-13 19:40:00,70.3,26.2,29.95,North,0,0.0,0.0,19,0.00,,SKC,0.00,VWS V14.00,2013-04-13 23:40:00,
2013-04-13 20:01:00,69.3,25.3,29.95,East,90,0.0,0.0,19,0.00,,SKC,0.00,VWS V14.00,2013-04-14 00:01:00,
2013-04-13 20:20:00,68.2,27.9,29.95,ENE,68,0.0,0.0,22,0.00,,SKC,0.00,VWS V14.00,2013-04-14 00:20:00,
2013-04-13 21:00:00,65.7,31.7,29.96,ENE,68,0.0,0.0,28,0.00,,SKC,0.00,VWS V14.00,2013-04-14 01:00:00,
2013-04-13 21:20:00,64.8,33.5,29.96,ENE,68,0.0,0.0,31,0.00,,SKC,0.00,VWS V14.00,2013-04-14 01:20:00,
2013-04-13 21:40:00,63.9,32.7,29.97,ENE,68,0.0,0.0,31,0.00,,SKC,0.00,VWS V14.00,2013-04-14 01:40:00,
2013-04-13 22:00:00,63.3,34.5,29.98,ENE,68,0.0,0.0,34,0.00,,SKC,0.00,VWS V14.00,2013-04-14 02:00:00,
2013-04-13 22:20:00,62.2,36.3,29.99,ENE,68,0.0,0.0,38,0.00,,SKC,0.00,VWS V14.00,2013-04-14 02:20:00,
2013-04-13 22:40:00,61.2,36.7,29.99,ENE,68,0.0,0.0,40,0.00,,SKC,0.00,VWS V14.00,2013-04-14 02:40:00,
2013-04-13 23:00:00,60.1,35.1,29.99,ENE,68,0.0,0.0,39,0.00,,SKC,0.00,VWS V14.00,2013-04-14 03:00:00,
2013-04-13 23:20:00,59.5,35.2,29.99,ENE,68,0.0,0.0,40,0.00,,SKC,0.00,VWS V14.00,2013-04-14 03:20:00,
2013-04-13 23:40:00,58.6,35.0,30.00,ENE,68,0.0,0.0,41,0.00,,SKC,0.00,VWS V14.00,2013-04-14 03:40:00,